Ingraham, New York
Current Conditions -  °F | °C
As of 10:53 PM on Wednesday 26 Nov 2014 (Local Time) from KPBG Reporting Station
Light Snow Light Snow  
Wind Chill: 18°   Ceiling: 1800
Heat Index: 29°   Visibility: 1.5mi
Dew Point: 26°   Wind: 14mph
Humidity: 89%   Direction: 340°NNW
Pressure: 30"   Gusts: NA
Location:  44.7972°N, 73.5243°W
Report Text: KPBG 270353Z AUTO 34012KT 1 1/2SM -SN BR FEW010 OVC018 M02/M03 A3000 RMK AO2 SLP164 P0001 T10171033
Loading
Personal Weather Stations






























Interactive Weather Map New forecast layout! Learn more

10-Day Weather Forecast

Advertisements
Track Severe Weather on mobile